Time;durP1;ratioP1;P1;durP2;ratioP2;P2;SDS_P1;SDS_P2;PMS_P1;PMS_P2;Temp;Humidity;BMP_temperature;BMP_pressure;BME280_temperature;BME280_humidity;BME280_pressure;Samples;Min_cycle;Max_cycle;Signal;HPM_P1;HPM_P2
2023/11/16 00:00:47;;;;;;;3.90;0.80;;;;;;;13.36;100.00;101527.47;2104678;28;20448;-70
2023/11/16 00:01:49;;;;;;;1.93;0.83;;;;;;;13.38;100.00;101525.06;2105319;28;20640;-70
2023/11/16 00:02:49;;;;;;;1.53;0.77;;;;;;;12.85;100.00;101452.94;2104771;28;20437;-70
2023/11/16 00:03:52;;;;;;;1.63;0.90;;;;;;;13.38;100.00;101536.94;2104636;28;20416;-69
2023/11/16 00:04:52;;;;;;;1.90;0.80;;;;;;;12.85;100.00;101456.53;2103941;28;20424;-70
2023/11/16 00:05:53;;;;;;;1.73;0.90;;;;;;;13.35;100.00;101537.03;2113194;28;20431;-70
2023/11/16 00:06:53;;;;;;;1.60;0.73;;;;;;;13.41;100.00;101543.66;2106021;28;20190;-70
2023/11/16 00:07:57;;;;;;;1.80;0.90;;;;;;;12.82;100.00;101465.72;2105251;28;20202;-70
2023/11/16 00:08:57;;;;;;;0.87;0.60;;;;;;;13.17;100.00;101506.00;2104672;28;20269;-70
2023/11/16 00:09:58;;;;;;;1.13;0.70;;;;;;;13.44;100.00;101551.16;2108780;28;20443;-69
2023/11/16 00:11:00;;;;;;;2.77;0.90;;;;;;;13.42;100.00;101554.38;2110829;28;20202;-70
2023/11/16 00:12:02;;;;;;;2.57;0.80;;;;;;;13.47;100.00;101551.09;2104704;28;20659;-70
2023/11/16 00:13:03;;;;;;;2.27;1.00;;;;;;;13.09;100.00;101501.78;2105160;28;20791;-69
2023/11/16 00:14:03;;;;;;;2.50;0.93;;;;;;;13.53;100.00;101556.94;2113527;28;20516;-70
2023/11/16 00:15:08;;;;;;;1.53;1.00;;;;;;;13.53;100.00;101556.94;2112665;28;20445;-70
2023/11/16 00:16:11;;;;;;;1.13;0.80;;;;;;;13.05;100.00;101490.72;2112101;28;20201;-70
2023/11/16 00:17:11;;;;;;;1.73;0.60;;;;;;;13.48;100.00;101552.66;2110760;28;20435;-70
2023/11/16 00:18:13;;;;;;;0.97;0.67;;;;;;;12.65;100.00;101419.56;2108893;28;20956;-70
2023/11/16 00:19:18;;;;;;;1.07;0.70;;;;;;;12.98;100.00;101484.53;2104514;28;20244;-70
2023/11/16 00:20:18;;;;;;;3.97;0.70;;;;;;;13.45;100.00;101561.09;2107442;28;20424;-69
2023/11/16 00:21:19;;;;;;;1.40;0.87;;;;;;;13.41;100.00;101550.03;2112451;28;20412;-69
2023/11/16 00:22:19;;;;;;;1.60;1.00;;;;;;;12.73;100.00;101456.38;2105057;28;20175;-69
2023/11/16 00:23:20;;;;;;;1.00;0.80;;;;;;;13.42;100.00;101551.59;2105529;28;20583;-70
2023/11/16 00:24:20;;;;;;;1.63;0.90;;;;;;;13.39;100.00;101549.69;2111451;28;20273;-70
2023/11/16 00:25:21;;;;;;;1.43;0.80;;;;;;;13.37;100.00;101560.44;2112983;28;20668;-70
2023/11/16 00:26:21;;;;;;;1.23;0.83;;;;;;;12.96;100.00;101493.28;2112906;28;20232;-70
2023/11/16 00:27:25;;;;;;;1.00;0.70;;;;;;;13.35;100.00;101548.16;2113859;28;20566;-70
2023/11/16 00:28:28;;;;;;;1.27;0.83;;;;;;;12.79;100.00;101463.81;2112527;28;20237;-70
2023/11/16 00:29:29;;;;;;;1.10;0.80;;;;;;;13.41;100.00;101563.94;2112229;28;20427;-70
2023/11/16 00:30:29;;;;;;;1.83;1.10;;;;;;;13.39;100.00;101560.03;2113002;28;20999;-70
2023/11/16 00:31:30;;;;;;;2.57;0.93;;;;;;;12.97;100.00;101494.09;2113824;28;20235;-70
2023/11/16 00:32:32;;;;;;;2.20;0.93;;;;;;;13.08;100.00;101509.38;2111679;28;20631;-70
2023/11/16 00:33:33;;;;;;;1.53;0.90;;;;;;;13.39;100.00;101558.03;2112841;28;20657;-70
2023/11/16 00:34:34;;;;;;;2.20;0.97;;;;;;;13.44;100.00;101557.53;2111921;28;20424;-69
2023/11/16 00:35:35;;;;;;;2.20;1.07;;;;;;;13.45;100.00;101556.31;2105284;28;20496;-70
2023/11/16 00:36:39;;;;;;;1.77;0.90;;;;;;;13.43;100.00;101567.06;2104827;28;20540;-70
2023/11/16 00:37:41;;;;;;;1.50;0.90;;;;;;;13.41;100.00;101563.94;2105525;28;20440;-70
2023/11/16 00:38:43;;;;;;;1.37;1.00;;;;;;;13.31;100.00;101561.38;2105216;28;20445;-70
2023/11/16 00:39:43;;;;;;;3.77;0.90;;;;;;;13.44;100.00;101565.09;2104642;28;20979;-69
2023/11/16 00:40:44;;;;;;;1.70;0.90;;;;;;;12.98;100.00;101501.22;2108260;28;20810;-69
2023/11/16 00:41:46;;;;;;;1.50;1.00;;;;;;;13.37;100.00;101560.44;2111500;28;20171;-70
2023/11/16 00:42:46;;;;;;;0.80;0.60;;;;;;;13.37;100.00;101570.81;2104418;28;20421;-70
2023/11/16 00:43:48;;;;;;;1.47;0.80;;;;;;;13.36;100.00;101572.00;2112218;28;20420;-69
2023/11/16 00:44:48;;;;;;;3.33;1.00;;;;;;;12.82;100.00;101492.75;2105108;28;20198;-70
2023/11/16 00:45:50;;;;;;;1.37;0.80;;;;;;;13.33;100.00;101564.53;2104630;28;21013;-70
2023/11/16 00:46:51;;;;;;;2.10;0.90;;;;;;;13.29;100.00;101567.38;2104980;28;20710;-70
2023/11/16 00:47:51;;;;;;;4.50;1.20;;;;;;;13.20;100.00;101561.59;2104337;28;20995;-70
2023/11/16 00:48:52;;;;;;;1.93;0.90;;;;;;;13.25;100.00;101568.66;2107621;28;20185;-70
2023/11/16 00:49:53;;;;;;;1.80;1.00;;;;;;;13.26;100.00;101570.22;2110704;28;20187;-70
2023/11/16 00:50:53;;;;;;;1.40;0.90;;;;;;;12.78;100.00;101509.53;2104876;28;20190;-70
2023/11/16 00:51:54;;;;;;;1.80;0.97;;;;;;;13.10;100.00;101553.44;2105563;28;20258;-70
2023/11/16 00:52:55;;;;;;;4.53;0.90;;;;;;;13.23;100.00;101577.44;2104430;28;20253;-70
2023/11/16 00:53:56;;;;;;;1.33;0.90;;;;;;;13.24;100.00;101575.44;2111009;28;20197;-69
2023/11/16 00:54:56;;;;;;;2.40;0.90;;;;;;;13.21;100.00;101565.19;2113140;28;20442;-70
2023/11/16 00:55:57;;;;;;;1.40;0.90;;;;;;;13.24;100.00;101576.22;2112915;28;20304;-70
2023/11/16 00:56:58;;;;;;;1.13;0.87;;;;;;;13.16;100.00;101577.56;2110454;28;20725;-70
2023/11/16 00:57:58;;;;;;;1.80;1.00;;;;;;;12.85;100.00;101526.06;2105213;28;20807;-69
2023/11/16 00:58:59;;;;;;;1.57;0.70;;;;;;;13.19;100.00;101575.94;2104689;28;20178;-69
2023/11/16 01:00:00;;;;;;;1.87;0.90;;;;;;;13.11;100.00;101577.31;2104785;28;20173;-70
2023/11/16 01:01:00;;;;;;;1.27;0.77;;;;;;;12.97;100.00;101553.28;2104930;28;20193;-70
2023/11/16 01:02:02;;;;;;;1.67;0.70;;;;;;;13.03;100.00;101573.88;2104700;28;20551;-69
2023/11/16 01:03:06;;;;;;;0.60;0.60;;;;;;;13.04;100.00;101564.28;2104493;28;20185;-70
2023/11/16 01:04:09;;;;;;;1.70;0.80;;;;;;;13.01;100.00;101562.34;2104163;28;20943;-70
2023/11/16 01:05:10;;;;;;;0.80;0.60;;;;;;;13.08;100.00;101564.22;2104052;28;20581;-69
2023/11/16 01:06:10;;;;;;;1.23;0.80;;;;;;;12.69;100.00;101514.06;2097507;28;20429;-69
2023/11/16 01:07:12;;;;;;;4.13;1.00;;;;;;;13.00;100.00;101560.78;2112476;28;20518;-70
2023/11/16 01:08:15;;;;;;;0.97;0.67;;;;;;;12.99;100.00;101564.00;2105623;28;20208;-70
2023/11/16 01:09:16;;;;;;;2.63;1.00;;;;;;;12.90;100.00;101570.09;2105348;28;20463;-69
2023/11/16 01:10:23;;;;;;;1.30;0.80;;;;;;;12.85;100.00;101570.56;2103822;28;20453;-69
2023/11/16 01:11:29;;;;;;;2.37;0.77;;;;;;;12.82;100.00;101562.31;2110393;28;20868;-69
2023/11/16 01:12:31;;;;;;;2.77;1.10;;;;;;;12.83;100.00;101558.31;2104914;28;20974;-69
2023/11/16 01:13:41;;;;;;;1.80;0.80;;;;;;;12.68;100.00;101537.53;2104556;28;20445;-69
2023/11/16 01:14:44;;;;;;;2.00;1.00;;;;;;;12.71;100.00;101556.16;2104942;28;20452;-70
2023/11/16 01:15:44;;;;;;;2.10;0.90;;;;;;;12.61;100.00;101541.19;2104887;28;20428;-70
2023/11/16 01:16:45;;;;;;;3.70;0.90;;;;;;;12.65;100.00;101555.06;2106637;28;20615;-69
2023/11/16 01:17:48;;;;;;;0.90;0.50;;;;;;;12.57;100.00;101543.28;2113444;28;20264;-70
2023/11/16 01:18:50;;;;;;;1.27;0.70;;;;;;;12.59;100.00;101557.53;2111975;28;20415;-70
2023/11/16 01:19:51;;;;;;;3.00;0.70;;;;;;;12.56;100.00;101552.03;2113127;28;20499;-70
2023/11/16 01:20:57;;;;;;;1.37;0.70;;;;;;;12.51;100.00;101550.50;2128791;27;20440;-70
2023/11/16 01:22:00;;;;;;;0.90;0.60;;;;;;;12.54;100.00;101554.44;2120554;27;20442;-70
2023/11/16 01:23:09;;;;;;;1.87;0.80;;;;;;;12.45;100.00;101549.44;2110595;28;20979;-70
2023/11/16 01:24:09;;;;;;;2.23;0.80;;;;;;;12.61;100.00;101563.44;2111579;28;20531;-69
2023/11/16 01:25:15;;;;;;;1.67;0.63;;;;;;;12.22;100.00;101495.81;2106398;28;20454;-70
2023/11/16 01:26:16;;;;;;;2.87;0.87;;;;;;;12.19;100.00;101500.22;2108181;28;20232;-70
2023/11/16 01:27:17;;;;;;;3.83;0.70;;;;;;;12.63;100.00;101557.47;2111642;28;20940;-69
2023/11/16 01:28:20;;;;;;;0.40;0.40;;;;;;;12.27;100.00;101525.91;2106108;28;20194;-69
2023/11/16 01:29:20;;;;;;;0.93;0.57;;;;;;;12.57;100.00;101557.19;2106424;28;20413;-69
2023/11/16 01:30:21;;;;;;;3.43;0.80;;;;;;;12.52;100.00;101568.00;2106064;28;20419;-69
2023/11/16 01:31:21;;;;;;;1.67;0.70;;;;;;;12.49;100.00;101574.38;2113295;28;20688;-69
2023/11/16 01:32:21;;;;;;;0.67;0.50;;;;;;;12.32;100.00;101550.44;2106436;28;20333;-70
2023/11/16 01:33:22;;;;;;;1.70;0.77;;;;;;;12.30;100.00;101550.09;2106466;28;20299;-70
2023/11/16 01:34:24;;;;;;;2.30;0.87;;;;;;;12.38;100.00;101571.78;2109242;28;20193;-69
2023/11/16 01:35:25;;;;;;;1.53;0.60;;;;;;;12.41;100.00;101575.72;2113856;28;20184;-70
2023/11/16 01:36:26;;;;;;;1.83;0.70;;;;;;;12.38;100.00;101571.00;2113339;28;20463;-70
2023/11/16 01:37:27;;;;;;;1.30;0.73;;;;;;;12.39;100.00;101573.38;2114192;28;20171;-70
2023/11/16 01:38:30;;;;;;;1.73;0.77;;;;;;;11.93;100.00;101523.28;2106707;28;20428;-70
2023/11/16 01:39:31;;;;;;;0.70;0.60;;;;;;;12.12;100.00;101542.03;2106460;28;20195;-69
2023/11/16 01:40:32;;;;;;;0.80;0.50;;;;;;;11.92;100.00;101524.50;2113484;28;20868;-70
2023/11/16 01:41:33;;;;;;;1.30;0.60;;;;;;;12.03;100.00;101558.44;2108413;28;20451;-70
2023/11/16 01:42:34;;;;;;;2.50;0.80;;;;;;;12.34;100.00;101590.53;2110043;28;20991;-70
2023/11/16 01:43:35;;;;;;;0.60;0.50;;;;;;;12.36;100.00;101595.66;2113884;28;20726;-70
2023/11/16 01:44:36;;;;;;;2.53;0.70;;;;;;;12.35;100.00;101600.44;2121603;27;20526;-70
2023/11/16 01:45:37;;;;;;;1.97;0.80;;;;;;;12.37;100.00;101594.44;2121779;27;20933;-70
2023/11/16 01:46:38;;;;;;;1.87;0.67;;;;;;;12.28;100.00;101588.63;2105898;28;20436;-70
2023/11/16 01:47:40;;;;;;;1.33;0.60;;;;;;;12.01;100.00;101560.88;2105688;28;20238;-70
2023/11/16 01:48:43;;;;;;;0.83;0.50;;;;;;;12.27;100.00;101598.97;2106069;28;20236;-69
2023/11/16 01:49:43;;;;;;;1.57;0.60;;;;;;;12.38;100.00;101604.34;2106124;28;20448;-70
2023/11/16 01:50:44;;;;;;;2.63;0.60;;;;;;;11.47;100.00;101453.72;2106393;28;20432;-70
2023/11/16 01:51:46;;;;;;;2.87;0.87;;;;;;;11.92;100.00;101551.47;2106055;28;20633;-70
2023/11/16 01:52:47;;;;;;;1.43;0.70;;;;;;;12.10;100.00;101540.88;2106156;28;20184;-69
2023/11/16 01:53:58;;;;;;;1.80;0.80;;;;;;;12.47;100.00;101597.06;2105432;28;20851;-69
2023/11/16 01:54:58;;;;;;;0.80;0.50;;;;;;;11.88;100.00;101495.22;2105666;28;20409;-69
2023/11/16 01:55:59;;;;;;;0.97;0.43;;;;;;;12.53;100.00;101600.94;2104918;28;20414;-70
2023/11/16 01:57:00;;;;;;;0.73;0.50;;;;;;;12.15;100.00;101534.84;2105802;28;20328;-70
2023/11/16 01:58:05;;;;;;;1.13;0.50;;;;;;;12.49;100.00;101605.75;2106299;28;20531;-69
2023/11/16 01:59:06;;;;;;;2.20;1.00;;;;;;;12.41;100.00;101601.50;2111828;28;20194;-69
2023/11/16 02:00:07;;;;;;;1.47;0.70;;;;;;;12.37;100.00;101608.34;2114004;28;20506;-69
2023/11/16 02:01:09;;;;;;;1.23;0.53;;;;;;;12.38;100.00;101607.13;2113923;28;20999;-69
2023/11/16 02:02:11;;;;;;;0.90;0.50;;;;;;;12.14;100.00;101580.53;2114284;28;20443;-70
2023/11/16 02:03:11;;;;;;;5.30;0.73;;;;;;;12.34;100.00;101609.97;2112024;28;20520;-69
2023/11/16 02:04:14;;;;;;;0.90;0.70;;;;;;;12.33;100.00;101608.41;2105697;28;20411;-70
2023/11/16 02:05:18;;;;;;;0.60;0.47;;;;;;;12.35;100.00;101610.78;2114875;28;20180;-70
2023/11/16 02:06:19;;;;;;;1.30;0.70;;;;;;;12.19;100.00;101580.06;2105907;28;20419;-70
2023/11/16 02:07:20;;;;;;;0.77;0.50;;;;;;;12.35;100.00;101605.22;2113881;28;20435;-70
2023/11/16 02:08:21;;;;;;;0.73;0.60;;;;;;;12.36;100.00;101615.13;2107602;28;20206;-70
2023/11/16 02:09:22;;;;;;;0.83;0.50;;;;;;;12.38;100.00;101612.69;2106205;28;20263;-69
2023/11/16 02:10:22;;;;;;;2.27;0.97;;;;;;;12.37;100.00;101616.69;2105485;28;20444;-69
2023/11/16 02:11:23;;;;;;;2.00;0.80;;;;;;;11.79;100.00;101517.16;2113977;28;20183;-70
2023/11/16 02:12:23;;;;;;;1.30;0.70;;;;;;;11.84;100.00;101534.13;2121716;27;20179;-70
2023/11/16 02:13:24;;;;;;;2.87;0.60;;;;;;;12.36;100.00;101609.56;2106662;28;20306;-70
2023/11/16 02:14:24;;;;;;;1.50;0.67;;;;;;;12.28;100.00;101596.97;2105092;28;20196;-70
2023/11/16 02:15:27;;;;;;;3.57;0.60;;;;;;;12.00;100.00;101542.59;2112886;28;20316;-70
2023/11/16 02:16:28;;;;;;;0.80;0.50;;;;;;;12.34;100.00;101609.97;2113411;28;20269;-69
2023/11/16 02:17:30;;;;;;;1.93;0.83;;;;;;;12.04;100.00;101565.56;2110202;28;20512;-70
2023/11/16 02:18:30;;;;;;;1.30;0.70;;;;;;;12.28;100.00;101597.75;2105752;28;20201;-69
2023/11/16 02:19:31;;;;;;;1.37;0.70;;;;;;;12.26;100.00;101602.97;2108315;28;20433;-69
2023/11/16 02:20:32;;;;;;;1.73;0.70;;;;;;;12.28;100.00;101610.88;2114103;28;20270;-70
2023/11/16 02:21:40;;;;;;;1.90;0.60;;;;;;;11.80;100.00;101533.41;2114874;28;20422;-70
2023/11/16 02:22:42;;;;;;;0.97;0.63;;;;;;;11.40;100.00;101478.81;2106044;28;20171;-70
2023/11/16 02:23:43;;;;;;;1.67;0.93;;;;;;;12.01;100.00;101585.06;2105558;28;20455;-70
2023/11/16 02:24:47;;;;;;;1.63;0.70;;;;;;;12.23;100.00;101616.88;2108315;28;20840;-70
2023/11/16 02:25:52;;;;;;;2.27;0.70;;;;;;;12.22;100.00;101618.09;2113946;28;20437;-70
2023/11/16 02:26:54;;;;;;;1.83;0.77;;;;;;;12.22;100.00;101629.22;2108718;27;20449;-70
2023/11/16 02:27:54;;;;;;;0.93;0.50;;;;;;;12.23;100.00;101631.59;2109208;28;20941;-70
2023/11/16 02:28:55;;;;;;;1.63;0.53;;;;;;;12.21;100.00;101631.22;2113593;28;20641;-72
2023/11/16 02:29:57;;;;;;;0.70;0.60;;;;;;;12.20;100.00;101628.88;2105111;28;20185;-71
2023/11/16 02:30:57;;;;;;;1.83;0.90;;;;;;;11.72;100.00;101562.47;2113538;28;20412;-71
2023/11/16 02:31:58;;;;;;;2.83;0.50;;;;;;;12.00;100.00;101617.63;2114881;28;20412;-71
2023/11/16 02:32:59;;;;;;;0.50;0.50;;;;;;;11.77;100.00;101587.00;2112978;28;20283;-71
2023/11/16 02:33:59;;;;;;;1.23;0.60;;;;;;;12.15;100.00;101644.00;2112992;28;20284;-71
2023/11/16 02:35:00;;;;;;;1.10;0.60;;;;;;;11.79;100.00;101595.69;2111694;28;20693;-71
2023/11/16 02:36:01;;;;;;;1.53;0.73;;;;;;;11.39;100.00;101529.97;2110048;28;20274;-70
2023/11/16 02:37:03;;;;;;;4.87;0.60;;;;;;;11.31;100.00;101513.81;2104708;28;20612;-71
2023/11/16 02:38:06;;;;;;;1.73;0.67;;;;;;;12.10;100.00;101650.03;2105744;28;20182;-71
2023/11/16 02:39:07;;;;;;;1.17;0.67;;;;;;;12.02;100.00;101633.88;2105788;28;20418;-70
2023/11/16 02:40:09;;;;;;;1.07;0.50;;;;;;;12.13;100.00;101645.63;2114702;28;20426;-70
2023/11/16 02:41:10;;;;;;;0.90;0.50;;;;;;;11.83;100.00;101604.00;2106027;28;20524;-71
2023/11/16 02:42:13;;;;;;;2.03;0.70;;;;;;;11.50;100.00;101549.25;2105634;28;20443;-70
2023/11/16 02:43:14;;;;;;;0.70;0.60;;;;;;;12.11;100.00;101640.50;2111259;28;20651;-70
2023/11/16 02:44:18;;;;;;;0.57;0.50;;;;;;;12.08;100.00;101651.66;2109338;28;20445;-71
2023/11/16 02:45:22;;;;;;;0.90;0.60;;;;;;;11.98;100.00;101638.69;2105940;28;20936;-70
2023/11/16 02:46:23;;;;;;;1.83;0.83;;;;;;;12.02;100.00;101645.78;2105500;28;20548;-70
2023/11/16 02:47:24;;;;;;;3.20;0.60;;;;;;;12.10;100.00;101654.81;2105399;28;20420;-70
2023/11/16 02:48:26;;;;;;;1.10;0.57;;;;;;;12.10;100.00;101647.25;2105620;28;20270;-70
2023/11/16 02:49:26;;;;;;;0.93;0.70;;;;;;;12.11;100.00;101656.38;2106232;28;20413;-70
2023/11/16 02:50:27;;;;;;;0.80;0.50;;;;;;;11.73;100.00;101602.91;2112943;28;20445;-71
2023/11/16 02:51:28;;;;;;;1.07;0.60;;;;;;;11.79;100.00;101606.03;2105025;28;20639;-71
2023/11/16 02:52:29;;;;;;;1.10;0.70;;;;;;;11.87;100.00;101619.41;2110663;28;20513;-71
2023/11/16 02:53:29;;;;;;;2.13;0.70;;;;;;;12.13;100.00;101662.28;2114048;28;20289;-71
2023/11/16 02:54:30;;;;;;;1.47;0.70;;;;;;;12.15;100.00;101662.69;2112612;28;20209;-70
2023/11/16 02:55:31;;;;;;;1.30;0.57;;;;;;;12.13;100.00;101660.31;2113841;28;20565;-70
2023/11/16 02:56:31;;;;;;;1.17;0.60;;;;;;;12.08;100.00;101659.97;2112969;27;20317;-71
2023/11/16 02:57:32;;;;;;;1.37;0.70;;;;;;;11.40;100.00;101547.41;2105479;28;20207;-71
2023/11/16 02:58:33;;;;;;;0.97;0.50;;;;;;;12.08;100.00;101673.88;2113197;28;20616;-71
2023/11/16 02:59:34;;;;;;;1.03;0.60;;;;;;;11.61;100.00;101597.91;2107599;28;20690;-71
2023/11/16 03:00:34;;;;;;;0.93;0.60;;;;;;;12.07;100.00;101670.31;2121656;27;20276;-70
2023/11/16 03:01:35;;;;;;;4.37;0.70;;;;;;;12.03;100.00;101666.00;2121672;27;20958;-70
2023/11/16 03:02:35;;;;;;;0.80;0.50;;;;;;;12.04;100.00;101668.38;2105790;28;20220;-70
2023/11/16 03:03:39;;;;;;;1.73;0.70;;;;;;;12.03;100.00;101672.34;2105251;28;20183;-71
2023/11/16 03:04:40;;;;;;;2.63;0.70;;;;;;;11.88;100.00;101662.63;2105240;28;20175;-71
2023/11/16 03:05:41;;;;;;;2.20;0.60;;;;;;;11.87;100.00;101651.94;2105831;28;20424;-70
2023/11/16 03:06:41;;;;;;;1.37;0.60;;;;;;;12.03;100.00;101677.13;2105350;28;20498;-70
2023/11/16 03:07:42;;;;;;;4.47;0.90;;;;;;;11.99;100.00;101677.16;2105138;28;20222;-71
2023/11/16 03:08:42;;;;;;;2.53;0.60;;;;;;;11.83;100.00;101663.09;2104332;28;20194;-71
2023/11/16 03:09:43;;;;;;;1.90;0.67;;;;;;;11.80;100.00;101646.47;2110751;28;20693;-71
2023/11/16 03:10:43;;;;;;;1.67;0.67;;;;;;;11.95;100.00;101676.41;2105203;28;20179;-71
2023/11/16 03:11:44;;;;;;;0.83;0.57;;;;;;;11.52;100.00;101610.72;2106419;28;20577;-71
2023/11/16 03:12:45;;;;;;;1.50;0.70;;;;;;;11.40;100.00;101600.94;2114438;28;20212;-71
2023/11/16 03:13:46;;;;;;;0.73;0.53;;;;;;;11.31;100.00;101608.16;2105251;28;20647;-71
2023/11/16 03:14:47;;;;;;;1.70;0.70;;;;;;;11.42;100.00;101619.94;2104606;28;20827;-71
2023/11/16 03:15:48;;;;;;;1.80;0.63;;;;;;;11.48;100.00;101644.03;2104521;28;20603;-71
2023/11/16 03:16:55;;;;;;;4.80;0.80;;;;;;;11.62;100.00;101662.53;2105408;28;20687;-70
2023/11/16 03:17:58;;;;;;;1.03;0.70;;;;;;;11.70;100.00;101684.28;2104176;28;20549;-70
2023/11/16 03:19:00;;;;;;;1.67;0.90;;;;;;;11.15;100.00;101602.38;2108323;28;20525;-71
2023/11/16 03:20:00;;;;;;;1.37;0.50;;;;;;;11.66;100.00;101683.53;2111688;28;20423;-71
2023/11/16 03:21:01;;;;;;;2.57;0.63;;;;;;;11.67;100.00;101679.56;2105679;28;20909;-71
2023/11/16 03:22:02;;;;;;;1.03;0.63;;;;;;;11.13;100.00;101605.56;2105309;28;20190;-71
2023/11/16 03:23:02;;;;;;;1.67;0.50;;;;;;;11.41;100.00;101651.66;2113365;28;20239;-71
2023/11/16 03:24:03;;;;;;;3.47;0.70;;;;;;;11.63;100.00;101686.34;2112734;28;20594;-71
2023/11/16 03:25:05;;;;;;;1.40;0.63;;;;;;;11.57;100.00;101704.63;2111985;28;20625;-71
2023/11/16 03:26:06;;;;;;;6.20;0.90;;;;;;;11.58;100.00;101681.22;2112872;28;20527;-71
2023/11/16 03:27:09;;;;;;;2.73;1.10;;;;;;;11.15;100.00;101619.84;2113855;28;20428;-71
2023/11/16 03:28:10;;;;;;;6.20;0.90;;;;;;;11.54;100.00;101689.56;2110669;28;20583;-71
2023/11/16 03:29:10;;;;;;;2.73;0.97;;;;;;;11.42;100.00;101667.91;2105243;28;20412;-71
2023/11/16 03:30:13;;;;;;;6.70;1.00;;;;;;;11.18;100.00;101637.66;2105423;28;20194;-71
2023/11/16 03:31:13;;;;;;;1.57;0.70;;;;;;;11.01;100.00;101631.06;2106013;28;20554;-71
2023/11/16 03:32:14;;;;;;;4.90;0.70;;;;;;;11.22;100.00;101666.91;2112863;28;20444;-71
2023/11/16 03:33:15;;;;;;;0.80;0.70;;;;;;;11.31;100.00;101694.97;2112891;28;20201;-71
2023/11/16 03:34:15;;;;;;;1.13;0.70;;;;;;;11.28;100.00;101698.56;2108109;28;20686;-71
2023/11/16 03:35:16;;;;;;;1.00;0.80;;;;;;;11.26;100.00;101700.19;2113405;28;20630;-71
2023/11/16 03:36:16;;;;;;;2.77;0.97;;;;;;;11.16;100.00;101707.41;2112503;28;20182;-70
2023/11/16 03:37:19;;;;;;;1.10;0.60;;;;;;;11.15;100.00;101693.94;2113513;28;20186;-71
2023/11/16 03:38:19;;;;;;;0.70;0.60;;;;;;;11.06;100.00;101702.75;2113346;28;20181;-71
2023/11/16 03:39:20;;;;;;;2.23;0.80;;;;;;;11.03;100.00;101691.69;2105434;28;20969;-71
2023/11/16 03:40:21;;;;;;;2.97;1.00;;;;;;;10.78;100.00;101660.59;2105662;28;20545;-71
2023/11/16 03:41:21;;;;;;;1.77;1.10;;;;;;;10.88;100.00;101693.00;2105636;28;20559;-71
2023/11/16 03:42:22;;;;;;;0.63;0.60;;;;;;;10.96;100.00;101702.84;2105345;28;20282;-71
2023/11/16 03:43:23;;;;;;;2.17;0.90;;;;;;;10.59;100.00;101667.47;2105190;28;20202;-71
2023/11/16 03:44:23;;;;;;;1.03;0.70;;;;;;;10.94;100.00;101708.00;2104995;28;20688;-71
2023/11/16 03:45:23;;;;;;;1.90;0.80;;;;;;;10.25;100.00;101602.03;2106010;28;20564;-71
2023/11/16 03:46:24;;;;;;;1.57;0.80;;;;;;;10.43;100.00;101627.59;2112583;28;20182;-71
2023/11/16 03:47:24;;;;;;;2.40;1.07;;;;;;;10.92;100.00;101702.84;2112783;28;20194;-71
2023/11/16 03:48:25;;;;;;;1.73;0.80;;;;;;;10.89;100.00;101719.53;2105417;28;20194;-71
2023/11/16 03:49:25;;;;;;;1.33;0.70;;;;;;;10.89;100.00;101705.66;2105068;28;20587;-71
2023/11/16 03:50:26;;;;;;;1.40;0.77;;;;;;;10.84;100.00;101703.31;2108736;28;20665;-71
2023/11/16 03:51:30;;;;;;;1.00;0.63;;;;;;;10.84;100.00;101701.34;2110411;28;20202;-71
2023/11/16 03:52:31;;;;;;;2.87;1.10;;;;;;;10.86;100.00;101706.50;2105097;28;20195;-71
2023/11/16 03:53:32;;;;;;;3.60;1.07;;;;;;;10.86;100.00;101704.50;2105221;28;20416;-71
2023/11/16 03:54:32;;;;;;;1.33;0.80;;;;;;;10.84;100.00;101706.91;2105027;28;20544;-71
2023/11/16 03:55:33;;;;;;;1.30;0.73;;;;;;;10.87;100.00;101708.84;2112741;28;20265;-71
2023/11/16 03:56:33;;;;;;;2.03;1.00;;;;;;;10.89;100.00;101706.47;2106314;28;20322;-71
2023/11/16 03:57:35;;;;;;;2.83;0.80;;;;;;;10.90;100.00;101707.22;2105375;28;20230;-71
2023/11/16 03:58:35;;;;;;;1.40;0.67;;;;;;;10.42;100.00;101651.78;2108879;28;20273;-71
2023/11/16 03:59:36;;;;;;;3.90;0.70;;;;;;;10.81;100.00;101709.72;2108781;28;20440;-71
2023/11/16 04:00:36;;;;;;;2.03;0.90;;;;;;;10.88;100.00;101718.75;2104990;28;20179;-71
2023/11/16 04:01:37;;;;;;;1.53;0.80;;;;;;;10.64;100.00;101708.63;2105020;28;20181;-71
2023/11/16 04:02:37;;;;;;;3.57;0.93;;;;;;;10.49;100.00;101704.38;2105204;28;20178;-71
2023/11/16 04:03:39;;;;;;;1.90;0.90;;;;;;;10.63;100.00;101720.13;2120104;27;20337;-71
2023/11/16 04:04:39;;;;;;;1.40;0.90;;;;;;;10.67;100.00;101729.22;2114517;27;20186;-71
2023/11/16 04:05:40;;;;;;;2.73;0.90;;;;;;;10.35;100.00;101671.19;2109765;28;20471;-71
2023/11/16 04:06:41;;;;;;;2.13;0.90;;;;;;;10.64;100.00;101730.00;2109510;28;20674;-71
2023/11/16 04:07:42;;;;;;;2.30;1.20;;;;;;;10.65;100.00;101721.28;2105225;28;20172;-71
2023/11/16 04:08:43;;;;;;;2.23;0.90;;;;;;;10.66;100.00;101728.41;2105188;28;20463;-71
2023/11/16 04:09:43;;;;;;;2.40;1.13;;;;;;;10.65;100.00;101723.28;2103822;28;20475;-71
2023/11/16 04:10:45;;;;;;;2.83;0.70;;;;;;;10.69;100.00;101721.25;2121778;27;20261;-71
2023/11/16 04:11:45;;;;;;;2.93;1.17;;;;;;;10.70;100.00;101723.63;2121911;27;20197;-71
2023/11/16 04:12:46;;;;;;;3.07;1.10;;;;;;;10.62;100.00;101716.56;2104872;28;20459;-71
2023/11/16 04:13:46;;;;;;;3.63;1.50;;;;;;;10.34;100.00;101688.22;2104575;28;20199;-71
2023/11/16 04:14:47;;;;;;;1.10;0.70;;;;;;;10.28;100.00;101671.25;2104948;28;20229;-71
2023/11/16 04:15:47;;;;;;;1.07;0.90;;;;;;;10.15;100.00;101650.75;2106817;28;20202;-71
2023/11/16 04:16:52;;;;;;;1.20;0.90;;;;;;;10.66;100.00;101724.84;2111606;28;20230;-71
2023/11/16 04:17:52;;;;;;;2.00;1.00;;;;;;;10.67;100.00;101729.97;2104747;28;20675;-71
2023/11/16 04:18:55;;;;;;;4.37;1.10;;;;;;;10.67;100.00;101721.66;2113138;28;20814;-71
2023/11/16 04:19:57;;;;;;;3.10;1.00;;;;;;;10.68;100.00;101723.25;2112300;28;20190;-71
2023/11/16 04:20:57;;;;;;;1.97;1.20;;;;;;;10.64;100.00;101711.41;2106056;28;20436;-71
2023/11/16 04:21:59;;;;;;;1.73;1.20;;;;;;;10.57;100.00;101703.16;2105086;28;20456;-71
2023/11/16 04:22:59;;;;;;;2.37;0.93;;;;;;;10.71;100.00;101724.44;2104747;28;20236;-71
2023/11/16 04:23:59;;;;;;;1.90;1.07;;;;;;;10.62;100.00;101705.47;2107176;28;20542;-71
2023/11/16 04:25:04;;;;;;;2.60;1.10;;;;;;;10.60;100.00;101710.63;2111621;28;20254;-71
2023/11/16 04:26:08;;;;;;;2.37;1.20;;;;;;;10.45;100.00;101686.97;2103792;28;20426;-71
2023/11/16 04:27:09;;;;;;;3.20;1.40;;;;;;;10.63;100.00;101723.69;2106321;28;20861;-71
2023/11/16 04:28:10;;;;;;;2.80;1.40;;;;;;;10.64;100.00;101727.22;2105619;28;20413;-71
2023/11/16 04:29:11;;;;;;;2.53;1.10;;;;;;;10.43;100.00;101694.91;2112117;28;20201;-71
2023/11/16 04:30:13;;;;;;;2.27;1.20;;;;;;;10.63;100.00;101731.22;2106593;28;20436;-71
2023/11/16 04:31:15;;;;;;;1.57;1.00;;;;;;;10.33;100.00;101684.69;2104599;28;20540;-71
2023/11/16 04:32:16;;;;;;;2.83;1.20;;;;;;;10.63;100.00;101722.88;2105196;28;20465;-72
2023/11/16 04:33:16;;;;;;;3.10;1.37;;;;;;;10.55;100.00;101726.91;2106761;28;20459;-71
2023/11/16 04:34:16;;;;;;;3.97;1.40;;;;;;;10.55;100.00;101726.91;2111018;28;20719;-72
2023/11/16 04:35:18;;;;;;;3.37;1.30;;;;;;;10.20;100.00;101675.25;2105690;28;20174;-71
2023/11/16 04:36:28;;;;;;;3.57;1.27;;;;;;;10.54;100.00;101734.44;2105187;28;20236;-72
2023/11/16 04:37:28;;;;;;;3.53;1.27;;;;;;;10.57;100.00;101730.88;2105781;28;20396;-71
2023/11/16 04:38:29;;;;;;;2.00;1.30;;;;;;;10.55;100.00;101724.91;2121278;27;20431;-71
2023/11/16 04:39:29;;;;;;;3.47;1.30;;;;;;;10.58;100.00;101728.88;2127030;27;20653;-71
2023/11/16 04:40:29;;;;;;;2.07;1.23;;;;;;;10.13;100.00;101655.91;2107972;28;20222;-71
2023/11/16 04:41:31;;;;;;;4.77;1.40;;;;;;;10.56;100.00;101726.50;2107387;28;20182;-71
2023/11/16 04:42:33;;;;;;;2.73;1.43;;;;;;;10.51;100.00;101731.69;2112259;28;20185;-72